createdAt,value
2023-01-20T00:01:07.978Z,99192.72
2023-01-20T00:03:34.961Z,99191.63
2023-01-20T00:06:01.858Z,99194.97
2023-01-20T00:08:30.003Z,99197.81
2023-01-20T00:10:57.067Z,99203.34
2023-01-20T00:13:23.827Z,99202.03
2023-01-20T00:15:51.853Z,99201.28
2023-01-20T00:18:19.821Z,99204.50
2023-01-20T00:20:46.819Z,99206.25
2023-01-20T00:23:13.418Z,99201.69
2023-01-20T00:25:41.393Z,99206.63
2023-01-20T00:28:08.154Z,99204.94
2023-01-20T00:30:35.795Z,99199.34
2023-01-20T00:33:02.754Z,99215.31
2023-01-20T00:35:30.900Z,99213.44
2023-01-20T00:37:57.819Z,99212.22
2023-01-20T00:40:24.891Z,99211.94
2023-01-20T00:42:51.533Z,99212.44
2023-01-20T00:45:19.616Z,99218.50
2023-01-20T00:47:46.321Z,99215.00
2023-01-20T00:50:12.924Z,99226.63
2023-01-20T00:52:40.877Z,99220.56
2023-01-20T00:55:08.159Z,99223.41
2023-01-20T00:57:37.168Z,99222.50
2023-01-20T01:00:04.685Z,99220.28
2023-01-20T01:02:31.380Z,99216.00
2023-01-20T01:04:57.958Z,99219.84
2023-01-20T01:07:25.067Z,99229.53
2023-01-20T01:09:53.139Z,99227.41
2023-01-20T01:12:19.787Z,99229.81
2023-01-20T01:14:46.636Z,99232.31
2023-01-20T01:17:13.279Z,99240.63
2023-01-20T01:19:39.886Z,99242.75
2023-01-20T01:22:07.148Z,99249.66
2023-01-20T01:24:33.903Z,99242.31
2023-01-20T01:27:02.072Z,99245.53
2023-01-20T01:29:28.652Z,99243.84
2023-01-20T01:31:55.376Z,99251.94
2023-01-20T01:34:22.161Z,99255.00
2023-01-20T01:36:49.808Z,99258.75
2023-01-20T01:39:16.934Z,99264.84
2023-01-20T01:41:43.810Z,99265.91
2023-01-20T01:44:15.472Z,99274.72
2023-01-20T01:46:42.987Z,99262.41
2023-01-20T01:49:13.854Z,99263.38
2023-01-20T01:51:45.504Z,99274.56
2023-01-20T01:54:15.642Z,99274.00
2023-01-20T01:56:44.379Z,99279.28
2023-01-20T01:59:16.596Z,99281.25
2023-01-20T02:01:51.680Z,99284.22
2023-01-20T02:04:23.352Z,99283.06
2023-01-20T02:06:53.627Z,99288.16
2023-01-20T02:09:20.668Z,99292.38
2023-01-20T02:11:51.996Z,99287.63
2023-01-20T02:14:25.779Z,99289.44
2023-01-20T02:17:00.296Z,99298.31
2023-01-20T02:20:09.021Z,99296.56
2023-01-20T02:22:47.104Z,99295.03
2023-01-20T02:25:48.003Z,99297.84
2023-01-20T02:28:53.057Z,99301.47
2023-01-20T02:31:44.904Z,99300.81
2023-01-20T02:34:16.388Z,99301.94
2023-01-20T02:36:48.249Z,99309.00
2023-01-20T02:39:27.148Z,99309.34
2023-01-20T02:41:59.754Z,99314.06
2023-01-20T02:44:43.156Z,99310.41
2023-01-20T02:47:14.550Z,99304.59
2023-01-20T02:49:53.033Z,99310.47
2023-01-20T02:52:25.246Z,99307.63
2023-01-20T02:54:56.224Z,99316.19
2023-01-20T02:57:28.446Z,99309.19
2023-01-20T03:00:00.195Z,99313.56
2023-01-20T03:02:33.241Z,99314.50
2023-01-20T03:05:07.089Z,99319.75
2023-01-20T03:07:37.498Z,99324.94
2023-01-20T03:10:08.796Z,99318.38
2023-01-20T03:12:40.597Z,99317.88
2023-01-20T03:15:09.510Z,99312.34
2023-01-20T03:17:36.411Z,99326.56
2023-01-20T03:20:05.412Z,99324.00
2023-01-20T03:22:32.080Z,99324.56
2023-01-20T03:25:03.673Z,99318.63
2023-01-20T03:27:32.201Z,99323.69
2023-01-20T03:29:58.845Z,99327.00
2023-01-20T03:32:26.145Z,99325.28
2023-01-20T03:34:57.155Z,99330.00
2023-01-20T03:37:25.155Z,99328.03
2023-01-20T03:39:53.409Z,99333.88
2023-01-20T03:42:30.056Z,99326.59
2023-01-20T03:45:06.544Z,99333.25
2023-01-20T03:47:51.794Z,99337.72
2023-01-20T03:50:31.948Z,99338.47
2023-01-20T03:53:05.757Z,99338.75
2023-01-20T03:55:40.348Z,99336.63
2023-01-20T03:58:11.403Z,99339.19
2023-01-20T04:00:42.272Z,99349.31
2023-01-20T04:03:15.030Z,99348.56
2023-01-20T04:05:43.765Z,99351.47
2023-01-20T04:08:16.231Z,99357.16
2023-01-20T04:10:46.392Z,99356.72
2023-01-20T04:13:13.640Z,99354.16
2023-01-20T04:15:43.340Z,99350.47
2023-01-20T04:18:12.437Z,99355.75
2023-01-20T04:20:39.311Z,99345.72
2023-01-20T04:23:06.784Z,99341.63
2023-01-20T04:25:36.645Z,99353.88
2023-01-20T04:28:03.789Z,99363.38
2023-01-20T04:30:30.707Z,99360.66
2023-01-20T04:32:57.653Z,99364.81
2023-01-20T04:35:24.882Z,99361.19
2023-01-20T04:37:51.813Z,99358.50
2023-01-20T04:40:18.682Z,99375.16
2023-01-20T04:42:46.856Z,99367.38
2023-01-20T04:45:16.120Z,99373.31
2023-01-20T04:47:42.952Z,99371.22
2023-01-20T04:50:11.456Z,99373.56
2023-01-20T04:52:38.499Z,99368.03
2023-01-20T04:55:05.863Z,99375.84
2023-01-20T04:57:32.466Z,99368.25
2023-01-20T05:00:02.904Z,99375.41
2023-01-20T05:02:29.882Z,99376.78
2023-01-20T05:04:56.859Z,99374.25
2023-01-20T05:07:23.640Z,99380.34
2023-01-20T05:09:56.175Z,99359.09
2023-01-20T05:12:23.313Z,99377.81
2023-01-20T05:14:50.037Z,99382.53
2023-01-20T05:17:18.014Z,99394.44
2023-01-20T05:19:45.639Z,99390.97
2023-01-20T05:22:15.768Z,99390.22
2023-01-20T05:24:42.848Z,99390.84
2023-01-20T05:27:11.763Z,99398.56
2023-01-20T05:29:38.323Z,99401.25
2023-01-20T05:32:05.531Z,99403.47
2023-01-20T05:34:36.141Z,99405.34
2023-01-20T05:37:02.856Z,99404.28
2023-01-20T05:39:29.742Z,99408.88
2023-01-20T05:41:56.932Z,99407.50
2023-01-20T05:44:24.283Z,99397.00
2023-01-20T05:46:51.341Z,99417.47
2023-01-20T05:49:18.916Z,99404.34
2023-01-20T05:51:47.122Z,99417.63
2023-01-20T05:54:13.795Z,99420.31
2023-01-20T05:56:40.552Z,99422.31
2023-01-20T05:59:07.161Z,99429.16
2023-01-20T06:01:33.742Z,99424.34
2023-01-20T06:04:02.967Z,99433.69
2023-01-20T06:06:30.089Z,99437.59
2023-01-20T06:08:58.184Z,99432.28
2023-01-20T06:11:24.863Z,99437.38
2023-01-20T06:13:51.468Z,99442.22
2023-01-20T06:16:19.115Z,99449.84
2023-01-20T06:18:46.427Z,99434.81
2023-01-20T06:21:13.430Z,99443.59
2023-01-20T06:23:41.683Z,99439.34
2023-01-20T06:26:12.300Z,99456.09
2023-01-20T06:28:39.834Z,99453.50
2023-01-20T06:31:10.585Z,99459.75
2023-01-20T06:33:38.133Z,99460.41
2023-01-20T06:36:07.085Z,99458.88
2023-01-20T06:38:35.588Z,99460.69
2023-01-20T06:41:04.253Z,99461.97
2023-01-20T06:43:33.665Z,99462.53
2023-01-20T06:46:00.505Z,99460.88
2023-01-20T06:48:27.395Z,99466.00
2023-01-20T06:50:54.162Z,99466.72
2023-01-20T06:53:20.701Z,99467.38
2023-01-20T06:55:54.293Z,99467.41
2023-01-20T06:58:20.965Z,99467.47
2023-01-20T07:00:49.170Z,99475.34
2023-01-20T07:03:15.895Z,99475.47
2023-01-20T07:05:42.480Z,99468.00
2023-01-20T07:08:09.598Z,99486.34
2023-01-20T07:10:37.013Z,99484.13
2023-01-20T07:13:04.062Z,99479.72
2023-01-20T07:15:30.976Z,99487.41
2023-01-20T07:18:00.010Z,99488.28
2023-01-20T07:20:27.120Z,99491.91
2023-01-20T07:22:53.709Z,99491.19
2023-01-20T07:25:20.621Z,99500.41
2023-01-20T07:27:47.358Z,99496.84
2023-01-20T07:30:14.417Z,99495.84
2023-01-20T07:32:41.040Z,99493.88
2023-01-20T07:35:09.616Z,99497.84
2023-01-20T07:37:36.395Z,99503.38
2023-01-20T07:40:03.364Z,99509.75
2023-01-20T07:42:30.013Z,99510.50
2023-01-20T07:44:56.717Z,99510.31
2023-01-20T07:47:23.439Z,99513.31
2023-01-20T07:49:50.605Z,99522.41
2023-01-20T07:52:21.075Z,99519.78
2023-01-20T07:54:47.645Z,99522.34
2023-01-20T07:57:14.820Z,99529.16
2023-01-20T07:59:41.642Z,99530.31
2023-01-20T08:02:09.104Z,99541.38
2023-01-20T08:04:35.896Z,99534.38
2023-01-20T08:07:03.039Z,99538.81
2023-01-20T08:09:31.376Z,99544.31
2023-01-20T08:11:58.052Z,99529.41
2023-01-20T08:14:26.271Z,99540.72
2023-01-20T08:16:53.608Z,99547.00
2023-01-20T08:19:20.807Z,99555.22
2023-01-20T08:21:47.931Z,99544.84
2023-01-20T08:24:14.601Z,99552.59
2023-01-20T08:26:43.337Z,99556.97
2023-01-20T08:29:10.381Z,99559.50
2023-01-20T08:31:38.002Z,99565.31
2023-01-20T08:34:06.371Z,99573.16
2023-01-20T08:36:35.679Z,99579.50
2023-01-20T08:39:05.429Z,99576.25
2023-01-20T08:41:34.480Z,99582.69
2023-01-20T08:44:04.667Z,99579.78
2023-01-20T08:46:31.856Z,99578.72
2023-01-20T08:48:58.543Z,99584.66
2023-01-20T08:51:29.543Z,99583.13
2023-01-20T08:53:56.899Z,99580.00
2023-01-20T08:56:23.929Z,99580.00
2023-01-20T08:58:51.107Z,99579.00
2023-01-20T09:01:21.926Z,99578.59
2023-01-20T09:04:04.908Z,99578.75
2023-01-20T09:06:41.229Z,99574.91
2023-01-20T09:09:08.467Z,99582.25
2023-01-20T09:11:36.074Z,99577.56
2023-01-20T09:14:04.593Z,99587.03
2023-01-20T09:16:32.879Z,99590.47
2023-01-20T09:18:59.857Z,99589.66
2023-01-20T09:21:26.748Z,99593.31
2023-01-20T09:23:53.729Z,99592.88
2023-01-20T09:26:34.759Z,99591.56
2023-01-20T09:29:02.595Z,99592.88
2023-01-20T09:31:29.454Z,99595.84
2023-01-20T09:34:01.792Z,99602.78
2023-01-20T09:36:28.690Z,99597.81
2023-01-20T09:38:55.704Z,99597.81
2023-01-20T09:41:27.918Z,99599.38
2023-01-20T09:44:01.728Z,99596.09
2023-01-20T09:46:45.611Z,99590.34
2023-01-20T09:49:23.851Z,99595.66
2023-01-20T09:52:02.357Z,99602.47
2023-01-20T09:54:38.582Z,99606.22
2023-01-20T09:57:07.096Z,99602.53
2023-01-20T09:59:40.579Z,99604.22
2023-01-20T10:02:17.970Z,99601.78
2023-01-20T10:04:53.363Z,99604.22
2023-01-20T10:07:25.335Z,99604.63
2023-01-20T10:09:57.720Z,99606.34
2023-01-20T10:12:30.380Z,99609.22
2023-01-20T10:15:08.071Z,99611.84
2023-01-20T10:17:39.239Z,99611.19
2023-01-20T10:20:15.275Z,99606.38
2023-01-20T10:22:48.249Z,99604.66
2023-01-20T10:25:20.158Z,99595.19
2023-01-20T10:27:55.724Z,99597.56
2023-01-20T10:30:25.813Z,99599.53
2023-01-20T10:32:58.823Z,99601.78
2023-01-20T10:35:28.892Z,99602.28
2023-01-20T10:37:56.716Z,99601.34
2023-01-20T10:40:34.855Z,99602.16
2023-01-20T10:43:11.637Z,99600.00
2023-01-20T10:45:49.806Z,99595.84
2023-01-20T10:48:31.483Z,99599.63
2023-01-20T10:51:05.270Z,99585.25
2023-01-20T10:53:51.055Z,99588.38
2023-01-20T10:56:35.459Z,99584.50
2023-01-20T10:59:09.366Z,99597.44
2023-01-20T11:01:36.370Z,99594.38
2023-01-20T11:04:03.031Z,99599.13
2023-01-20T11:06:31.509Z,99597.53
2023-01-20T11:09:11.854Z,99600.59
2023-01-20T11:11:38.971Z,99589.63
2023-01-20T11:14:08.361Z,99602.47
2023-01-20T11:16:35.240Z,99589.78
2023-01-20T11:19:04.939Z,99586.84
2023-01-20T11:21:35.551Z,99591.72
2023-01-20T11:24:03.979Z,99593.53
2023-01-20T11:26:33.133Z,99595.94
2023-01-20T11:29:30.079Z,99601.91
2023-01-20T11:32:02.688Z,99602.34
2023-01-20T11:34:31.517Z,99593.41
2023-01-20T11:37:20.284Z,99592.28
2023-01-20T11:40:08.892Z,99593.28
2023-01-20T11:42:43.447Z,99592.13
2023-01-20T11:45:25.307Z,99589.63
2023-01-20T11:48:05.275Z,99592.38
2023-01-20T11:50:35.203Z,99590.56
2023-01-20T11:53:18.331Z,99592.22
2023-01-20T11:55:48.875Z,99600.44
2023-01-20T11:58:18.816Z,99583.63
2023-01-20T12:00:46.864Z,99591.72
2023-01-20T12:03:55.542Z,99590.28
2023-01-20T12:06:26.310Z,99593.19
2023-01-20T12:09:01.732Z,99590.47
2023-01-20T12:11:32.269Z,99594.63
2023-01-20T12:14:16.237Z,99595.69
2023-01-20T12:16:46.625Z,99597.09
2023-01-20T12:19:17.998Z,99592.44
2023-01-20T12:22:02.318Z,99598.72
2023-01-20T12:24:42.906Z,99589.19
2023-01-20T12:27:21.048Z,99586.69
2023-01-20T12:29:53.664Z,99590.34
2023-01-20T12:32:20.571Z,99590.47
2023-01-20T12:34:47.518Z,99594.94
2023-01-20T12:37:23.950Z,99595.06
2023-01-20T12:40:06.970Z,99594.63
2023-01-20T12:42:59.202Z,99593.91
2023-01-20T12:45:41.330Z,99593.22
2023-01-20T12:48:24.359Z,99594.53
2023-01-20T12:51:08.783Z,99591.16
2023-01-20T12:53:53.921Z,99600.84
2023-01-20T12:56:32.589Z,99600.47
2023-01-20T12:59:07.981Z,99600.13
2023-01-20T13:01:50.616Z,99598.63
2023-01-20T13:04:45.093Z,99600.25
2023-01-20T13:07:22.215Z,99602.88
2023-01-20T13:10:19.656Z,99597.03
2023-01-20T13:12:57.383Z,99597.56
2023-01-20T13:15:29.216Z,99585.72
2023-01-20T13:18:47.529Z,99595.69
2023-01-20T13:21:17.976Z,99602.16
2023-01-20T13:23:47.314Z,99605.56
2023-01-20T13:26:14.953Z,99609.72
2023-01-20T13:28:53.162Z,99597.47
2023-01-20T13:31:31.667Z,99604.88
2023-01-20T13:34:30.873Z,99610.59
2023-01-20T13:37:24.693Z,99611.28
2023-01-20T13:39:52.348Z,99614.53
2023-01-20T13:42:48.553Z,99619.25
2023-01-20T13:45:24.820Z,99613.94
2023-01-20T13:47:55.187Z,99618.19
2023-01-20T13:50:24.706Z,99627.31
2023-01-20T13:53:27.565Z,99632.38
2023-01-20T13:56:03.901Z,99630.97
2023-01-20T13:58:32.119Z,99633.78
2023-01-20T14:01:02.200Z,99636.69
2023-01-20T14:03:31.363Z,99639.25
2023-01-20T14:06:00.700Z,99640.94
2023-01-20T14:08:29.873Z,99636.53
2023-01-20T14:11:13.385Z,99648.72
2023-01-20T14:13:40.875Z,99640.09
2023-01-20T14:16:19.314Z,99646.94
2023-01-20T14:18:46.291Z,99647.31
2023-01-20T14:21:19.308Z,99657.81
2023-01-20T14:23:46.337Z,99659.22
2023-01-20T14:26:21.328Z,99659.06
2023-01-20T14:28:50.975Z,99658.59
2023-01-20T14:31:34.455Z,99656.72
2023-01-20T14:34:03.435Z,99658.00
2023-01-20T14:36:33.124Z,99666.03
2023-01-20T14:39:03.906Z,99666.78
2023-01-20T14:41:34.034Z,99670.34
2023-01-20T14:44:01.824Z,99672.50
2023-01-20T14:46:39.781Z,99682.00
2023-01-20T14:49:07.047Z,99689.94
2023-01-20T14:51:33.850Z,99686.16
2023-01-20T14:54:35.054Z,99692.25
2023-01-20T14:57:12.508Z,99700.63
2023-01-20T14:59:39.418Z,99697.28
2023-01-20T15:02:18.988Z,99709.03
2023-01-20T15:04:45.871Z,99721.47
2023-01-20T15:07:19.315Z,99717.72
2023-01-20T15:09:53.213Z,99722.47
2023-01-20T15:12:40.010Z,99734.84
2023-01-20T15:15:14.332Z,99735.06
2023-01-20T15:18:14.127Z,99740.91
2023-01-20T15:20:45.124Z,99741.97
2023-01-20T15:23:21.275Z,99745.13
2023-01-20T15:25:50.639Z,99747.56
2023-01-20T15:28:27.428Z,99752.00
2023-01-20T15:30:56.471Z,99754.38
2023-01-20T15:33:30.919Z,99749.16
2023-01-20T15:36:14.929Z,99759.53
2023-01-20T15:38:44.393Z,99767.75
2023-01-20T15:41:12.670Z,99775.13
2023-01-20T15:43:41.272Z,99770.91
2023-01-20T15:46:10.236Z,99786.13
2023-01-20T15:48:39.147Z,99786.09
2023-01-20T15:51:06.593Z,99792.09
2023-01-20T15:53:33.312Z,99786.81
2023-01-20T15:56:01.116Z,99789.72
2023-01-20T15:58:32.386Z,99805.56
2023-01-20T16:01:00.499Z,99803.94
2023-01-20T16:03:28.312Z,99815.75
2023-01-20T16:05:57.001Z,99812.66
2023-01-20T16:08:32.713Z,99817.06
2023-01-20T16:11:01.420Z,99819.72
2023-01-20T16:13:28.836Z,99828.81
2023-01-20T16:15:56.031Z,99834.50
2023-01-20T16:18:25.244Z,99824.44
2023-01-20T16:20:51.871Z,99839.41
2023-01-20T16:23:20.503Z,99844.38
2023-01-20T16:25:47.200Z,99844.81
2023-01-20T16:28:15.572Z,99840.28
2023-01-20T16:30:42.872Z,99845.13
2023-01-20T16:33:17.273Z,99853.03
2023-01-20T16:35:44.170Z,99861.56
2023-01-20T16:38:14.789Z,99862.88
2023-01-20T16:40:47.621Z,99858.41
2023-01-20T16:43:14.931Z,99862.06
2023-01-20T16:45:41.563Z,99869.84
2023-01-20T16:48:08.300Z,99861.69
2023-01-20T16:50:36.301Z,99880.88
2023-01-20T16:53:03.283Z,99877.50
2023-01-20T16:55:30.120Z,99882.59
2023-01-20T16:58:00.006Z,99885.38
2023-01-20T17:00:28.094Z,99894.38
2023-01-20T17:02:55.224Z,99892.03
2023-01-20T17:05:22.968Z,99904.34
2023-01-20T17:07:50.310Z,99907.09
2023-01-20T17:10:19.936Z,99913.00
2023-01-20T17:12:48.823Z,99906.47
2023-01-20T17:15:17.513Z,99913.41
2023-01-20T17:17:48.229Z,99933.59
2023-01-20T17:20:15.745Z,99943.22
2023-01-20T17:22:44.572Z,99930.63
2023-01-20T17:25:12.263Z,99934.50
2023-01-20T17:27:39.432Z,99940.31
2023-01-20T17:30:08.271Z,99942.03
2023-01-20T17:32:37.298Z,99960.22
2023-01-20T17:35:05.103Z,99959.25
2023-01-20T17:37:31.955Z,99958.94
2023-01-20T17:39:58.579Z,99961.69
2023-01-20T17:42:25.498Z,99962.53
2023-01-20T17:44:52.254Z,99966.34
2023-01-20T17:47:19.274Z,99970.78
2023-01-20T17:49:48.054Z,99975.34
2023-01-20T17:52:17.156Z,99987.31
2023-01-20T17:54:44.189Z,99986.44
2023-01-20T17:57:11.583Z,99997.81
2023-01-20T17:59:38.456Z,99999.13
2023-01-20T18:02:05.075Z,99999.78
2023-01-20T18:04:32.193Z,100006.53
2023-01-20T18:07:00.440Z,100010.59
2023-01-20T18:09:27.199Z,100016.13
2023-01-20T18:11:53.839Z,100021.00
2023-01-20T18:14:20.638Z,100017.69
2023-01-20T18:16:47.587Z,100024.56
2023-01-20T18:19:14.865Z,100018.63
2023-01-20T18:21:42.956Z,100022.09
2023-01-20T18:24:11.717Z,100030.84
2023-01-20T18:26:41.036Z,100024.53
2023-01-20T18:29:10.524Z,100044.38
2023-01-20T18:31:37.396Z,100044.41
2023-01-20T18:35:46.797Z,100052.78
2023-01-20T18:36:59.416Z,100055.78
2023-01-20T18:40:06.474Z,100055.31
2023-01-20T18:42:33.611Z,100065.28
2023-01-20T18:45:00.160Z,100063.56
2023-01-20T18:47:26.856Z,100065.56
2023-01-20T18:49:56.555Z,100066.38
2023-01-20T18:52:23.932Z,100071.22
2023-01-20T18:54:50.824Z,100079.19
2023-01-20T18:57:18.995Z,100085.38
2023-01-20T18:59:45.610Z,100092.00
2023-01-20T19:02:12.220Z,100087.34
2023-01-20T19:04:39.078Z,100090.88
2023-01-20T19:07:05.749Z,100094.19
2023-01-20T19:09:33.964Z,100098.91
2023-01-20T19:12:01.308Z,100096.19
2023-01-20T19:14:29.671Z,100104.59
2023-01-20T19:16:56.587Z,100100.38
2023-01-20T19:19:23.527Z,100109.81
2023-01-20T19:21:50.868Z,100114.25
2023-01-20T19:24:19.945Z,100118.00
2023-01-20T19:26:47.009Z,100117.06
2023-01-20T19:29:15.668Z,100135.88
2023-01-20T19:31:44.002Z,100138.50
2023-01-20T19:34:12.478Z,100129.44
2023-01-20T19:36:39.145Z,100135.59
2023-01-20T19:39:05.948Z,100135.81
2023-01-20T19:41:33.418Z,100131.56
2023-01-20T19:44:01.906Z,100149.19
2023-01-20T19:46:30.715Z,100145.59
2023-01-20T19:49:00.070Z,100149.31
2023-01-20T19:51:27.339Z,100159.94
2023-01-20T19:53:57.030Z,100160.06
2023-01-20T19:56:24.891Z,100170.50
2023-01-20T19:58:53.107Z,100176.09
2023-01-20T20:01:22.085Z,100172.53
2023-01-20T20:03:50.107Z,100183.06
2023-01-20T20:06:25.651Z,100175.97
2023-01-20T20:08:53.768Z,100174.16
2023-01-20T20:11:20.571Z,100182.84
2023-01-20T20:13:47.201Z,100195.63
2023-01-20T20:16:14.046Z,100203.59
2023-01-20T20:18:42.173Z,100195.72
2023-01-20T20:21:09.070Z,100196.59
2023-01-20T20:23:37.239Z,100189.44
2023-01-20T20:26:03.975Z,100201.13
2023-01-20T20:28:30.559Z,100208.38
2023-01-20T20:31:05.330Z,100214.50
2023-01-20T20:33:32.110Z,100200.81
2023-01-20T20:35:58.798Z,100219.81
2023-01-20T20:38:26.187Z,100212.00
2023-01-20T20:40:57.942Z,100224.88
2023-01-20T20:43:25.220Z,100230.97
2023-01-20T20:45:52.628Z,100237.22
2023-01-20T20:48:19.437Z,100233.13
2023-01-20T20:50:46.659Z,100242.78
2023-01-20T20:53:13.279Z,100249.06
2023-01-20T20:55:40.211Z,100250.84
2023-01-20T20:58:08.581Z,100254.91
2023-01-20T21:00:35.948Z,100266.09
2023-01-20T21:03:03.855Z,100267.06
2023-01-20T21:05:30.587Z,100273.19
2023-01-20T21:07:57.339Z,100276.75
2023-01-20T21:10:24.045Z,100284.69
2023-01-20T21:12:50.771Z,100283.75
2023-01-20T21:15:20.057Z,100288.38
2023-01-20T21:17:46.715Z,100293.06
2023-01-20T21:20:13.911Z,100292.91
2023-01-20T21:22:40.835Z,100300.09
2023-01-20T21:25:08.684Z,100305.31
2023-01-20T21:27:35.409Z,100309.78
2023-01-20T21:30:02.133Z,100300.84
2023-01-20T21:32:30.044Z,100308.13
2023-01-20T21:34:56.823Z,100300.09
2023-01-20T21:37:24.631Z,100315.31
2023-01-20T21:39:51.325Z,100314.56
2023-01-20T21:42:18.102Z,100326.66
2023-01-20T21:44:45.011Z,100323.47
2023-01-20T21:47:11.756Z,100321.50
2023-01-20T21:49:43.129Z,100330.59
2023-01-20T21:52:11.205Z,100331.56
2023-01-20T21:54:40.382Z,100344.16
2023-01-20T21:57:07.240Z,100348.69
2023-01-20T21:59:34.259Z,100349.56
2023-01-20T22:02:01.055Z,100347.84
2023-01-20T22:04:28.251Z,100355.09
2023-01-20T22:06:56.410Z,100358.44
2023-01-20T22:09:23.092Z,100364.94
2023-01-20T22:11:50.300Z,100367.44
2023-01-20T22:14:17.427Z,100371.94
2023-01-20T22:16:44.281Z,100377.25
2023-01-20T22:19:12.415Z,100383.56
2023-01-20T22:21:39.135Z,100387.91
2023-01-20T22:24:08.277Z,100389.56
2023-01-20T22:26:35.003Z,100385.16
2023-01-20T22:29:01.971Z,100394.03
2023-01-20T22:31:28.804Z,100403.06
2023-01-20T22:33:57.418Z,100403.94
2023-01-20T22:36:25.320Z,100407.56
2023-01-20T22:38:54.279Z,100407.97
2023-01-20T22:41:22.534Z,100412.19
2023-01-20T22:44:08.342Z,100406.97
2023-01-20T22:46:35.031Z,100411.47
2023-01-20T22:49:02.007Z,100430.09
2023-01-20T22:51:30.372Z,100419.41
2023-01-20T22:53:58.543Z,100420.50
2023-01-20T22:56:28.240Z,100425.03
2023-01-20T22:58:55.819Z,100434.75
2023-01-20T23:01:25.777Z,100437.34
2023-01-20T23:03:54.397Z,100448.22
2023-01-20T23:06:21.358Z,100450.09
2023-01-20T23:08:48.407Z,100439.44
2023-01-20T23:11:17.899Z,100445.75
2023-01-20T23:13:46.077Z,100450.19
2023-01-20T23:16:16.442Z,100445.81
2023-01-20T23:18:43.839Z,100442.28
2023-01-20T23:21:11.155Z,100449.34
2023-01-20T23:23:38.288Z,100448.34
2023-01-20T23:26:07.750Z,100454.56
2023-01-20T23:28:34.942Z,100457.22
2023-01-20T23:31:05.542Z,100464.31
2023-01-20T23:33:32.738Z,100472.34
2023-01-20T23:36:04.166Z,100452.03
2023-01-20T23:38:31.104Z,100475.19
2023-01-20T23:40:58.349Z,100482.16
2023-01-20T23:43:24.995Z,100481.25
2023-01-20T23:45:51.630Z,100488.44
2023-01-20T23:48:21.019Z,100485.66
2023-01-20T23:50:47.607Z,100491.88
2023-01-20T23:53:14.818Z,100494.59
2023-01-20T23:55:43.544Z,100507.00
2023-01-20T23:58:11.423Z,100507.00
